SCB32T EGGW-EICK
Flight info
| Callsign | SCB32T |
|---|---|
| Flight time | 0h 58m |
| Altitude | 26000 |
| Route | RODNI1C RODNI N27 ICTAM/N0407F340 T421 DIDZA N14 OKSAW DCT BIBPE DCT TIGWE DCT FELCA DCT NICXI DCT OFSOX DCT BANBA DCT VAPAL VAPAL1G |
| Aircraft | B738/M-SDE2E3FGHIRWXY/LB1 |
Departure
| Time | 2026-05-04 18:50 |
|---|---|
| Airport | London Luton Airport (EGGW) |
Arrival
| Time | 2026-05-04 19:49 |
|---|---|
| Airport | Cork International Airport (EICK) |
| Time | Latitude | Longitude | Altitude | Speed | Heading |
|---|---|---|---|---|---|
| 2026-05-04 18:21 | 51.88369 | -0.37472 | 510 ft | 0 kts | 85° |
| 2026-05-04 18:41 | 51.88369 | -0.37450 | 510 ft | 4 kts | 88° |
| 2026-05-04 18:41 | 51.88370 | -0.37389 | 510 ft | 6 kts | 88° |
| 2026-05-04 18:42 | 51.88365 | -0.37323 | 510 ft | 6 kts | 116° |
| 2026-05-04 18:42 | 51.88331 | -0.37293 | 510 ft | 4 kts | 175° |
| 2026-05-04 18:42 | 51.88327 | -0.37292 | 510 ft | 0 kts | 172° |
| 2026-05-04 18:43 | 51.88326 | -0.37292 | 510 ft | 1 kts | 172° |
| 2026-05-04 18:43 | 51.88318 | -0.37290 | 511 ft | 2 kts | 169° |
| 2026-05-04 18:43 | 51.88307 | -0.37285 | 512 ft | 2 kts | 164° |
| 2026-05-04 18:43 | 51.88297 | -0.37281 | 514 ft | 1 kts | 163° |
| 2026-05-04 18:44 | 51.88283 | -0.37273 | 515 ft | 3 kts | 162° |
| 2026-05-04 18:44 | 51.88263 | -0.37263 | 516 ft | 7 kts | 162° |
| 2026-05-04 18:44 | 51.88176 | -0.37215 | 514 ft | 13 kts | 161° |
| 2026-05-04 18:44 | 51.88068 | -0.37159 | 507 ft | 18 kts | 162° |
| 2026-05-04 18:45 | 51.87964 | -0.37104 | 508 ft | 14 kts | 162° |
| 2026-05-04 18:45 | 51.87874 | -0.37055 | 509 ft | 13 kts | 162° |
| 2026-05-04 18:45 | 51.87788 | -0.37010 | 515 ft | 13 kts | 162° |
| 2026-05-04 18:45 | 51.87704 | -0.36965 | 521 ft | 13 kts | 161° |
| 2026-05-04 18:46 | 51.87633 | -0.36965 | 523 ft | 10 kts | 226° |
| 2026-05-04 18:46 | 51.87609 | -0.37088 | 521 ft | 12 kts | 255° |
| 2026-05-04 18:46 | 51.87588 | -0.37208 | 521 ft | 11 kts | 255° |
| 2026-05-04 18:46 | 51.87576 | -0.37331 | 521 ft | 11 kts | 276° |
| 2026-05-04 18:47 | 51.87572 | -0.37445 | 521 ft | 11 kts | 227° |
| 2026-05-04 18:47 | 51.87506 | -0.37515 | 520 ft | 12 kts | 233° |
| 2026-05-04 18:47 | 51.87486 | -0.37638 | 522 ft | 11 kts | 254° |
| 2026-05-04 18:47 | 51.87465 | -0.37762 | 522 ft | 12 kts | 254° |
| 2026-05-04 18:48 | 51.87442 | -0.37894 | 522 ft | 12 kts | 255° |
| 2026-05-04 18:48 | 51.87412 | -0.38017 | 523 ft | 12 kts | 230° |
| 2026-05-04 18:48 | 51.87341 | -0.38087 | 521 ft | 12 kts | 207° |
| 2026-05-04 18:48 | 51.87266 | -0.38105 | 522 ft | 9 kts | 149° |
| 2026-05-04 18:49 | 51.87259 | -0.38023 | 523 ft | 1 kts | 75° |
| 2026-05-04 18:49 | 51.87261 | -0.38012 | 523 ft | 4 kts | 75° |
| 2026-05-04 18:49 | 51.87309 | -0.37736 | 522 ft | 59 kts | 74° |
| 2026-05-04 18:49 | 51.87485 | -0.36728 | 525 ft | 124 kts | 74° |
| 2026-05-04 18:50 | 51.87769 | -0.35123 | 659 ft | 162 kts | 72° |
| 2026-05-04 18:50 | 51.88044 | -0.33425 | 1631 ft | 148 kts | 73° |
| 2026-05-04 18:50 | 51.88328 | -0.31789 | 2204 ft | 160 kts | 71° |
| 2026-05-04 18:50 | 51.88668 | -0.29904 | 2448 ft | 188 kts | 72° |
| 2026-05-04 18:51 | 51.89055 | -0.27754 | 2649 ft | 209 kts | 71° |
| 2026-05-04 18:51 | 51.89153 | -0.25307 | 2814 ft | 233 kts | 102° |
| 2026-05-04 18:51 | 51.88248 | -0.23099 | 3174 ft | 244 kts | 142° |
| 2026-05-04 18:51 | 51.86655 | -0.22233 | 3635 ft | 247 kts | 181° |
| 2026-05-04 18:52 | 51.85065 | -0.23089 | 3963 ft | 246 kts | 218° |
| 2026-05-04 18:52 | 51.84126 | -0.25288 | 4002 ft | 239 kts | 254° |
| 2026-05-04 18:52 | 51.83770 | -0.27880 | 4037 ft | 240 kts | 259° |
| 2026-05-04 18:52 | 51.83423 | -0.30534 | 4524 ft | 238 kts | 258° |
| 2026-05-04 18:53 | 51.83053 | -0.33139 | 5102 ft | 239 kts | 257° |
| 2026-05-04 18:53 | 51.82658 | -0.35737 | 5658 ft | 239 kts | 256° |
| 2026-05-04 18:53 | 51.82241 | -0.38369 | 6166 ft | 244 kts | 256° |
| 2026-05-04 18:53 | 51.81803 | -0.41095 | 6574 ft | 260 kts | 256° |
| 2026-05-04 18:54 | 51.81339 | -0.43962 | 7148 ft | 265 kts | 256° |
| 2026-05-04 18:54 | 51.80892 | -0.46859 | 7685 ft | 266 kts | 257° |
| 2026-05-04 18:54 | 51.80455 | -0.49752 | 8233 ft | 271 kts | 256° |
| 2026-05-04 18:54 | 51.80000 | -0.52764 | 8821 ft | 273 kts | 256° |
| 2026-05-04 18:55 | 51.79549 | -0.55731 | 9392 ft | 279 kts | 256° |
| 2026-05-04 18:55 | 51.78606 | -0.61912 | 10174 ft | 293 kts | 256° |
| 2026-05-04 18:55 | 51.78120 | -0.65087 | 10105 ft | 289 kts | 256° |
| 2026-05-04 18:56 | 51.77644 | -0.68193 | 10069 ft | 281 kts | 256° |
| 2026-05-04 18:56 | 51.77180 | -0.71211 | 10101 ft | 273 kts | 256° |
| 2026-05-04 18:56 | 51.76721 | -0.74191 | 10162 ft | 278 kts | 256° |
| 2026-05-04 18:56 | 51.76228 | -0.77334 | 10331 ft | 301 kts | 253° |
| 2026-05-04 18:57 | 51.75220 | -0.80404 | 10497 ft | 324 kts | 229° |
| 2026-05-04 18:57 | 51.73587 | -0.83080 | 10713 ft | 343 kts | 225° |
| 2026-05-04 18:57 | 51.71866 | -0.85828 | 11092 ft | 354 kts | 225° |
| 2026-05-04 18:57 | 51.70092 | -0.88652 | 11608 ft | 361 kts | 225° |
| 2026-05-04 18:58 | 51.68303 | -0.91498 | 12270 ft | 363 kts | 225° |
| 2026-05-04 18:58 | 51.66510 | -0.94362 | 12927 ft | 365 kts | 225° |
| 2026-05-04 18:58 | 51.64739 | -0.97194 | 13878 ft | 359 kts | 225° |
| 2026-05-04 18:58 | 51.63006 | -0.99966 | 15171 ft | 342 kts | 225° |
| 2026-05-04 18:59 | 51.61373 | -1.02567 | 16296 ft | 336 kts | 224° |
| 2026-05-04 18:59 | 51.59698 | -1.05225 | 17008 ft | 342 kts | 224° |
| 2026-05-04 18:59 | 51.58000 | -1.07914 | 17781 ft | 345 kts | 224° |
| 2026-05-04 18:59 | 51.56277 | -1.10649 | 18436 ft | 350 kts | 225° |
| 2026-05-04 19:00 | 51.54885 | -1.13892 | 18984 ft | 359 kts | 247° |
| 2026-05-04 19:00 | 51.54358 | -1.17816 | 19642 ft | 365 kts | 268° |
| 2026-05-04 19:00 | 51.54703 | -1.21867 | 20290 ft | 371 kts | 287° |
| 2026-05-04 19:00 | 51.55830 | -1.25630 | 20910 ft | 377 kts | 298° |
| 2026-05-04 19:01 | 51.57157 | -1.29287 | 21523 ft | 381 kts | 298° |
| 2026-05-04 19:01 | 51.58499 | -1.32964 | 22206 ft | 382 kts | 298° |
| 2026-05-04 19:01 | 51.59824 | -1.36691 | 22815 ft | 386 kts | 297° |
| 2026-05-04 19:01 | 51.61142 | -1.40474 | 23377 ft | 390 kts | 296° |
| 2026-05-04 19:02 | 51.62433 | -1.44329 | 23893 ft | 393 kts | 295° |
| 2026-05-04 19:02 | 51.63713 | -1.48225 | 24478 ft | 393 kts | 295° |
| 2026-05-04 19:02 | 51.64973 | -1.52080 | 25006 ft | 395 kts | 295° |
| 2026-05-04 19:02 | 51.66262 | -1.56010 | 25461 ft | 399 kts | 295° |
| 2026-05-04 19:03 | 51.67566 | -1.59974 | 25905 ft | 403 kts | 295° |
| 2026-05-04 19:03 | 51.68883 | -1.63980 | 26367 ft | 406 kts | 295° |
| 2026-05-04 19:03 | 51.70050 | -1.68110 | 26804 ft | 405 kts | 286° |
| 2026-05-04 19:03 | 51.70765 | -1.72490 | 27276 ft | 404 kts | 275° |
| 2026-05-04 19:04 | 51.71085 | -1.76982 | 27726 ft | 404 kts | 272° |
| 2026-05-04 19:04 | 51.71363 | -1.81512 | 28162 ft | 407 kts | 272° |
| 2026-05-04 19:04 | 51.71663 | -1.86074 | 28581 ft | 410 kts | 273° |
| 2026-05-04 19:04 | 51.71977 | -1.90601 | 29002 ft | 413 kts | 273° |
| 2026-05-04 19:05 | 51.72303 | -1.95216 | 29422 ft | 416 kts | 273° |
| 2026-05-04 19:05 | 51.72635 | -1.99880 | 29768 ft | 420 kts | 273° |
| 2026-05-04 19:05 | 51.72960 | -2.04449 | 30275 ft | 418 kts | 273° |
| 2026-05-04 19:05 | 51.73288 | -2.09091 | 30783 ft | 416 kts | 273° |
| 2026-05-04 19:06 | 51.73614 | -2.13730 | 31196 ft | 416 kts | 273° |
| 2026-05-04 19:06 | 51.73937 | -2.18383 | 31545 ft | 418 kts | 274° |
| 2026-05-04 19:06 | 51.74258 | -2.23050 | 31936 ft | 418 kts | 274° |
| 2026-05-04 19:06 | 51.74577 | -2.27709 | 32369 ft | 418 kts | 274° |
| 2026-05-04 19:07 | 51.74894 | -2.32363 | 32773 ft | 417 kts | 274° |
| 2026-05-04 19:07 | 51.75205 | -2.36967 | 33136 ft | 418 kts | 274° |
| 2026-05-04 19:07 | 51.75518 | -2.41627 | 33508 ft | 418 kts | 274° |
| 2026-05-04 19:07 | 51.75829 | -2.46295 | 33835 ft | 420 kts | 275° |
| 2026-05-04 19:08 | 51.76141 | -2.50992 | 34110 ft | 422 kts | 275° |
| 2026-05-04 19:08 | 51.76451 | -2.55694 | 34446 ft | 420 kts | 274° |
| 2026-05-04 19:08 | 51.76759 | -2.60381 | 34773 ft | 420 kts | 275° |
| 2026-05-04 19:08 | 51.77065 | -2.65069 | 35080 ft | 419 kts | 275° |
| 2026-05-04 19:09 | 51.77368 | -2.69751 | 35367 ft | 419 kts | 275° |
| 2026-05-04 19:09 | 51.77669 | -2.74429 | 35661 ft | 419 kts | 274° |
| 2026-05-04 19:09 | 51.77968 | -2.79112 | 35922 ft | 420 kts | 275° |
| 2026-05-04 19:09 | 51.78262 | -2.83746 | 36025 ft | 422 kts | 275° |
| 2026-05-04 19:10 | 51.78858 | -2.93210 | 36015 ft | 423 kts | 275° |
| 2026-05-04 19:10 | 51.79437 | -3.02511 | 36016 ft | 419 kts | 275° |
| 2026-05-04 19:11 | 51.80012 | -3.11873 | 36018 ft | 419 kts | 275° |
| 2026-05-04 19:11 | 51.80578 | -3.21218 | 36029 ft | 418 kts | 275° |
| 2026-05-04 19:12 | 51.81410 | -3.35192 | 36020 ft | 419 kts | 275° |
| 2026-05-04 19:13 | 51.81961 | -3.44569 | 36026 ft | 420 kts | 275° |
| 2026-05-04 19:13 | 51.82514 | -3.53977 | 36025 ft | 421 kts | 277° |
| 2026-05-04 19:14 | 51.83589 | -3.63278 | 36033 ft | 421 kts | 282° |
| 2026-05-04 19:14 | 51.84863 | -3.72542 | 36031 ft | 423 kts | 282° |
| 2026-05-04 19:15 | 51.86101 | -3.81777 | 36027 ft | 423 kts | 282° |
| 2026-05-04 19:15 | 51.87309 | -3.91102 | 36033 ft | 424 kts | 282° |
| 2026-05-04 19:16 | 51.88486 | -4.00354 | 36036 ft | 424 kts | 282° |
| 2026-05-04 19:16 | 51.89667 | -4.09717 | 36035 ft | 425 kts | 282° |
| 2026-05-04 19:17 | 51.90834 | -4.19030 | 36027 ft | 425 kts | 282° |
| 2026-05-04 19:17 | 51.92005 | -4.28428 | 36027 ft | 426 kts | 282° |
| 2026-05-04 19:18 | 51.93168 | -4.37833 | 36041 ft | 426 kts | 282° |
| 2026-05-04 19:18 | 51.94324 | -4.47245 | 36038 ft | 426 kts | 282° |
| 2026-05-04 19:19 | 51.95465 | -4.56596 | 36042 ft | 426 kts | 282° |
| 2026-05-04 19:19 | 51.96605 | -4.66010 | 36038 ft | 426 kts | 282° |
| 2026-05-04 19:20 | 51.97738 | -4.75433 | 36046 ft | 426 kts | 282° |
| 2026-05-04 19:20 | 51.98864 | -4.84863 | 36046 ft | 426 kts | 282° |
| 2026-05-04 19:21 | 51.99983 | -4.94300 | 36048 ft | 426 kts | 282° |
| 2026-05-04 19:21 | 52.01075 | -5.03565 | 36058 ft | 426 kts | 282° |
| 2026-05-04 19:21 | 52.01626 | -5.08298 | 35909 ft | 429 kts | 282° |
| 2026-05-04 19:22 | 52.02174 | -5.13086 | 35425 ft | 432 kts | 282° |
| 2026-05-04 19:22 | 52.02675 | -5.17886 | 34916 ft | 432 kts | 277° |
| 2026-05-04 19:22 | 52.02774 | -5.22773 | 34358 ft | 436 kts | 267° |
| 2026-05-04 19:22 | 52.02467 | -5.27683 | 33830 ft | 437 kts | 265° |
| 2026-05-04 19:23 | 52.02098 | -5.32572 | 33340 ft | 435 kts | 264° |
| 2026-05-04 19:23 | 52.01719 | -5.37430 | 32915 ft | 432 kts | 264° |
| 2026-05-04 19:23 | 52.01354 | -5.42192 | 32500 ft | 430 kts | 264° |
| 2026-05-04 19:23 | 52.00995 | -5.46995 | 32093 ft | 427 kts | 265° |
| 2026-05-04 19:24 | 52.00648 | -5.51762 | 31702 ft | 424 kts | 265° |
| 2026-05-04 19:24 | 52.00306 | -5.56503 | 31308 ft | 422 kts | 265° |
| 2026-05-04 19:24 | 51.99968 | -5.61223 | 30917 ft | 420 kts | 265° |
| 2026-05-04 19:24 | 51.99629 | -5.65932 | 30286 ft | 424 kts | 265° |
| 2026-05-04 19:25 | 51.99282 | -5.70766 | 29358 ft | 434 kts | 265° |
| 2026-05-04 19:25 | 51.98928 | -5.75643 | 28888 ft | 442 kts | 265° |
| 2026-05-04 19:25 | 51.98558 | -5.80717 | 28395 ft | 464 kts | 264° |
| 2026-05-04 19:25 | 51.98174 | -5.85935 | 27894 ft | 473 kts | 264° |
| 2026-05-04 19:26 | 51.97780 | -5.91227 | 27387 ft | 473 kts | 265° |
| 2026-05-04 19:26 | 51.97383 | -5.96537 | 26885 ft | 474 kts | 264° |
| 2026-05-04 19:26 | 51.96994 | -6.01699 | 26416 ft | 473 kts | 264° |
| 2026-05-04 19:26 | 51.96595 | -6.06965 | 25930 ft | 467 kts | 264° |
| 2026-05-04 19:27 | 51.96201 | -6.12141 | 25432 ft | 459 kts | 264° |
| 2026-05-04 19:27 | 51.95812 | -6.17240 | 24941 ft | 452 kts | 264° |
| 2026-05-04 19:27 | 51.95426 | -6.22263 | 24462 ft | 447 kts | 264° |
| 2026-05-04 19:27 | 51.95097 | -6.27236 | 23990 ft | 442 kts | 266° |
| 2026-05-04 19:28 | 51.94869 | -6.32177 | 23502 ft | 437 kts | 267° |
| 2026-05-04 19:28 | 51.94685 | -6.37003 | 22945 ft | 433 kts | 268° |
| 2026-05-04 19:28 | 51.94510 | -6.41864 | 22406 ft | 431 kts | 268° |
| 2026-05-04 19:28 | 51.94332 | -6.46702 | 21875 ft | 429 kts | 268° |
| 2026-05-04 19:29 | 51.94146 | -6.51516 | 21352 ft | 427 kts | 268° |
| 2026-05-04 19:29 | 51.93952 | -6.56294 | 20840 ft | 424 kts | 267° |
| 2026-05-04 19:29 | 51.93753 | -6.61047 | 20334 ft | 421 kts | 267° |
| 2026-05-04 19:29 | 51.93550 | -6.65758 | 19837 ft | 417 kts | 267° |
| 2026-05-04 19:30 | 51.93346 | -6.70414 | 19348 ft | 412 kts | 266° |
| 2026-05-04 19:30 | 51.93143 | -6.75006 | 18866 ft | 406 kts | 266° |
| 2026-05-04 19:30 | 51.92943 | -6.79481 | 18397 ft | 401 kts | 266° |
| 2026-05-04 19:30 | 51.92742 | -6.83964 | 17858 ft | 396 kts | 266° |
| 2026-05-04 19:31 | 51.92541 | -6.88388 | 17342 ft | 392 kts | 266° |
| 2026-05-04 19:31 | 51.92341 | -6.92764 | 16841 ft | 387 kts | 266° |
| 2026-05-04 19:31 | 51.92141 | -6.97088 | 16348 ft | 383 kts | 266° |
| 2026-05-04 19:31 | 51.91948 | -7.01257 | 15876 ft | 379 kts | 266° |
| 2026-05-04 19:32 | 51.91750 | -7.05490 | 15397 ft | 375 kts | 266° |
| 2026-05-04 19:32 | 51.91553 | -7.09677 | 14970 ft | 370 kts | 266° |
| 2026-05-04 19:32 | 51.91356 | -7.13811 | 14554 ft | 366 kts | 266° |
| 2026-05-04 19:32 | 51.91164 | -7.17834 | 14150 ft | 362 kts | 266° |
| 2026-05-04 19:33 | 51.90969 | -7.21873 | 13728 ft | 358 kts | 266° |
| 2026-05-04 19:33 | 51.90776 | -7.25868 | 13275 ft | 354 kts | 266° |
| 2026-05-04 19:33 | 51.90583 | -7.29820 | 12826 ft | 350 kts | 266° |
| 2026-05-04 19:33 | 51.90391 | -7.33731 | 12382 ft | 346 kts | 266° |
| 2026-05-04 19:34 | 51.90201 | -7.37563 | 11978 ft | 337 kts | 266° |
| 2026-05-04 19:34 | 51.90014 | -7.41297 | 11582 ft | 329 kts | 266° |
| 2026-05-04 19:34 | 51.89831 | -7.44942 | 11211 ft | 321 kts | 266° |
| 2026-05-04 19:34 | 51.89651 | -7.48504 | 10836 ft | 314 kts | 266° |
| 2026-05-04 19:35 | 51.89477 | -7.51939 | 10470 ft | 307 kts | 266° |
| 2026-05-04 19:35 | 51.89303 | -7.55344 | 10122 ft | 301 kts | 266° |
| 2026-05-04 19:35 | 51.89132 | -7.58698 | 9779 ft | 298 kts | 266° |
| 2026-05-04 19:35 | 51.88959 | -7.62038 | 9401 ft | 297 kts | 266° |
| 2026-05-04 19:36 | 51.88788 | -7.65352 | 9051 ft | 295 kts | 266° |
| 2026-05-04 19:36 | 51.88616 | -7.68646 | 8707 ft | 293 kts | 266° |
| 2026-05-04 19:36 | 51.88446 | -7.71906 | 8460 ft | 288 kts | 266° |
| 2026-05-04 19:36 | 51.88277 | -7.75100 | 8234 ft | 282 kts | 266° |
| 2026-05-04 19:37 | 51.88110 | -7.78245 | 8139 ft | 280 kts | 266° |
| 2026-05-04 19:37 | 51.87880 | -7.81390 | 8084 ft | 282 kts | 256° |
| 2026-05-04 19:37 | 51.86970 | -7.84143 | 7965 ft | 283 kts | 232° |
| 2026-05-04 19:37 | 51.85734 | -7.86557 | 7927 ft | 272 kts | 231° |
| 2026-05-04 19:38 | 51.84554 | -7.88819 | 7835 ft | 256 kts | 231° |
| 2026-05-04 19:38 | 51.83437 | -7.90958 | 7720 ft | 242 kts | 231° |
| 2026-05-04 19:38 | 51.82383 | -7.92983 | 7567 ft | 231 kts | 231° |
| 2026-05-04 19:38 | 51.81322 | -7.95034 | 6867 ft | 246 kts | 231° |
| 2026-05-04 19:39 | 51.80233 | -7.97140 | 6711 ft | 242 kts | 231° |
| 2026-05-04 19:39 | 51.79149 | -7.99238 | 6548 ft | 244 kts | 231° |
| 2026-05-04 19:39 | 51.78084 | -8.01299 | 6435 ft | 245 kts | 231° |
| 2026-05-04 19:39 | 51.77003 | -8.03391 | 6303 ft | 246 kts | 232° |
| 2026-05-04 19:40 | 51.75907 | -8.05513 | 6160 ft | 245 kts | 232° |
| 2026-05-04 19:40 | 51.74816 | -8.07623 | 6098 ft | 245 kts | 232° |
| 2026-05-04 19:40 | 51.73726 | -8.09731 | 6093 ft | 244 kts | 232° |
| 2026-05-04 19:40 | 51.72636 | -8.11839 | 6088 ft | 245 kts | 232° |
| 2026-05-04 19:41 | 51.71545 | -8.13945 | 6090 ft | 245 kts | 232° |
| 2026-05-04 19:41 | 51.70452 | -8.16053 | 6091 ft | 245 kts | 232° |
| 2026-05-04 19:41 | 51.69360 | -8.18156 | 6091 ft | 245 kts | 232° |
| 2026-05-04 19:41 | 51.68317 | -8.20319 | 6048 ft | 243 kts | 242° |
| 2026-05-04 19:42 | 51.67718 | -8.22805 | 5747 ft | 239 kts | 254° |
| 2026-05-04 19:42 | 51.67197 | -8.25311 | 5395 ft | 234 kts | 252° |
| 2026-05-04 19:42 | 51.66672 | -8.27712 | 5262 ft | 220 kts | 252° |
| 2026-05-04 19:42 | 51.66170 | -8.29960 | 5150 ft | 206 kts | 252° |
| 2026-05-04 19:43 | 51.65694 | -8.32073 | 4952 ft | 198 kts | 252° |
| 2026-05-04 19:43 | 51.65226 | -8.34152 | 4583 ft | 198 kts | 252° |
| 2026-05-04 19:43 | 51.65038 | -8.36294 | 4246 ft | 188 kts | 289° |
| 2026-05-04 19:43 | 51.65783 | -8.37815 | 4177 ft | 178 kts | 336° |
| 2026-05-04 19:44 | 51.66919 | -8.38663 | 3934 ft | 186 kts | 336° |
| 2026-05-04 19:44 | 51.68086 | -8.39534 | 3688 ft | 183 kts | 340° |
| 2026-05-04 19:44 | 51.69258 | -8.40281 | 3450 ft | 179 kts | 342° |
| 2026-05-04 19:44 | 51.70407 | -8.40972 | 3207 ft | 174 kts | 342° |
| 2026-05-04 19:45 | 51.71519 | -8.41633 | 2979 ft | 167 kts | 343° |
| 2026-05-04 19:45 | 51.72582 | -8.42264 | 2755 ft | 157 kts | 343° |
| 2026-05-04 19:45 | 51.73567 | -8.42849 | 2568 ft | 142 kts | 343° |
| 2026-05-04 19:45 | 51.74446 | -8.43371 | 2358 ft | 128 kts | 343° |
| 2026-05-04 19:46 | 51.75244 | -8.43845 | 2178 ft | 119 kts | 344° |
| 2026-05-04 19:46 | 51.76019 | -8.44302 | 2083 ft | 129 kts | 343° |
| 2026-05-04 19:46 | 51.76876 | -8.44810 | 1874 ft | 130 kts | 342° |
| 2026-05-04 19:46 | 51.77719 | -8.45311 | 1674 ft | 127 kts | 342° |
| 2026-05-04 19:47 | 51.78522 | -8.45788 | 1500 ft | 121 kts | 341° |
| 2026-05-04 19:47 | 51.79314 | -8.46263 | 1379 ft | 124 kts | 340° |
| 2026-05-04 19:47 | 51.80141 | -8.46765 | 1205 ft | 130 kts | 340° |
| 2026-05-04 19:47 | 51.80993 | -8.47267 | 1017 ft | 130 kts | 340° |
| 2026-05-04 19:48 | 51.81846 | -8.47768 | 843 ft | 130 kts | 340° |
| 2026-05-04 19:48 | 51.82701 | -8.48272 | 638 ft | 132 kts | 339° |
| 2026-05-04 19:48 | 51.83534 | -8.48762 | 508 ft | 124 kts | 339° |
| 2026-05-04 19:48 | 51.84260 | -8.49192 | 503 ft | 95 kts | 340° |
| 2026-05-04 19:49 | 51.84738 | -8.49473 | 503 ft | 46 kts | 340° |
| 2026-05-04 19:49 | 51.84944 | -8.49594 | 503 ft | 21 kts | 346° |
| 2026-05-04 19:49 | 51.85045 | -8.49550 | 503 ft | 12 kts | 25° |
| 2026-05-04 19:49 | 51.85109 | -8.49502 | 503 ft | 6 kts | 24° |
| 2026-05-04 19:50 | 51.85138 | -8.49467 | 503 ft | 0 kts | 50° |
| 2026-05-04 19:51 | 51.85142 | -8.49459 | 503 ft | 2 kts | 50° |
| 2026-05-04 19:51 | 51.85148 | -8.49444 | 503 ft | 2 kts | 57° |
| 2026-05-04 19:51 | 51.85157 | -8.49418 | 503 ft | 3 kts | 64° |
| 2026-05-04 19:51 | 51.85165 | -8.49384 | 503 ft | 3 kts | 70° |
| 2026-05-04 19:52 | 51.85172 | -8.49351 | 503 ft | 3 kts | 70° |
| 2026-05-04 19:52 | 51.85179 | -8.49319 | 503 ft | 3 kts | 70° |
| 2026-05-04 19:52 | 51.85186 | -8.49290 | 503 ft | 3 kts | 70° |
| 2026-05-04 19:52 | 51.85190 | -8.49259 | 503 ft | 3 kts | 95° |
| 2026-05-04 19:53 | 51.85181 | -8.49251 | 503 ft | 0 kts | 161° |